sensor_id;sensor_type;location;lat;lon;timestamp;pressure;altitude;pressure_sealevel;temperature;humidity
69247;BME280;56358;56.328;43.992;2023-07-16T00:00:38;99946.84;;;15.80;77.56
69247;BME280;56358;56.328;43.992;2023-07-16T00:02:39;99949.72;;;15.78;77.53
69247;BME280;56358;56.328;43.992;2023-07-16T00:04:40;99931.97;;;15.67;77.50
69247;BME280;56358;56.328;43.992;2023-07-16T00:06:41;99924.00;;;15.66;77.74
69247;BME280;56358;56.328;43.992;2023-07-16T00:08:42;99900.50;;;15.50;77.66
69247;BME280;56358;56.328;43.992;2023-07-16T00:10:42;99935.69;;;15.74;77.60
69247;BME280;56358;56.328;43.992;2023-07-16T00:12:43;99931.44;;;15.72;77.34
69247;BME280;56358;56.328;43.992;2023-07-16T00:14:44;99964.28;;;15.85;77.62
69247;BME280;56358;56.328;43.992;2023-07-16T00:16:45;99944.44;;;15.76;77.67
69247;BME280;56358;56.328;43.992;2023-07-16T00:18:45;99954.94;;;15.80;77.45
69247;BME280;56358;56.328;43.992;2023-07-16T00:20:46;99954.25;;;15.78;77.97
69247;BME280;56358;56.328;43.992;2023-07-16T00:22:46;99955.25;;;15.76;77.50
69247;BME280;56358;56.328;43.992;2023-07-16T00:24:47;99968.13;;;15.74;77.53
69247;BME280;56358;56.328;43.992;2023-07-16T00:26:48;99946.47;;;15.66;77.82
69247;BME280;56358;56.328;43.992;2023-07-16T00:28:48;99954.94;;;15.71;77.68
69247;BME280;56358;56.328;43.992;2023-07-16T00:30:49;99960.66;;;15.76;77.93
69247;BME280;56358;56.328;43.992;2023-07-16T00:32:50;99957.97;;;15.76;77.89
69247;BME280;56358;56.328;43.992;2023-07-16T00:34:50;99900.19;;;15.45;77.97
69247;BME280;56358;56.328;43.992;2023-07-16T00:36:51;99897.97;;;15.40;77.50
69247;BME280;56358;56.328;43.992;2023-07-16T00:38:52;99940.22;;;15.66;77.81
69247;BME280;56358;56.328;43.992;2023-07-16T00:40:53;99937.38;;;15.67;77.87
69247;BME280;56358;56.328;43.992;2023-07-16T00:42:53;99958.53;;;15.80;77.65
69247;BME280;56358;56.328;43.992;2023-07-16T00:44:54;99952.94;;;15.82;77.67
69247;BME280;56358;56.328;43.992;2023-07-16T00:46:55;99957.66;;;15.80;78.09
69247;BME280;56358;56.328;43.992;2023-07-16T00:48:56;99960.66;;;15.76;78.06
69247;BME280;56358;56.328;43.992;2023-07-16T00:50:57;99966.47;;;15.82;78.43
69247;BME280;56358;56.328;43.992;2023-07-16T00:52:58;99964.78;;;15.81;78.13
69247;BME280;56358;56.328;43.992;2023-07-16T00:54:58;99931.63;;;15.62;77.92
69247;BME280;56358;56.328;43.992;2023-07-16T00:56:59;99966.47;;;15.82;77.85
69247;BME280;56358;56.328;43.992;2023-07-16T00:59:00;99944.63;;;15.67;77.97
69247;BME280;56358;56.328;43.992;2023-07-16T01:01:01;99951.72;;;15.68;78.24
69247;BME280;56358;56.328;43.992;2023-07-16T01:03:02;99964.22;;;15.69;78.31
69247;BME280;56358;56.328;43.992;2023-07-16T01:05:04;99976.22;;;15.74;78.18
69247;BME280;56358;56.328;43.992;2023-07-16T01:07:08;99969.28;;;15.72;78.14
69247;BME280;56358;56.328;43.992;2023-07-16T01:09:16;99971.47;;;15.68;78.36
69247;BME280;56358;56.328;43.992;2023-07-16T01:11:18;99967.22;;;15.66;78.37
69247;BME280;56358;56.328;43.992;2023-07-16T01:13:19;99964.41;;;15.67;78.40
69247;BME280;56358;56.328;43.992;2023-07-16T01:15:20;99969.81;;;15.67;78.49
69247;BME280;56358;56.328;43.992;2023-07-16T01:17:21;99907.75;;;15.33;78.51
69247;BME280;56358;56.328;43.992;2023-07-16T01:19:22;99966.06;;;15.68;78.80
69247;BME280;56358;56.328;43.992;2023-07-16T01:21:23;99960.81;;;15.67;79.08
69247;BME280;56358;56.328;43.992;2023-07-16T01:25:45;99961.81;;;15.66;79.13
69247;BME280;56358;56.328;43.992;2023-07-16T01:30:14;99958.44;;;15.55;79.13
69247;BME280;56358;56.328;43.992;2023-07-16T01:32:16;99974.00;;;15.70;79.25
69247;BME280;56358;56.328;43.992;2023-07-16T01:34:18;99969.81;;;15.67;79.37
69247;BME280;56358;56.328;43.992;2023-07-16T01:36:21;99966.59;;;15.72;78.90
69247;BME280;56358;56.328;43.992;2023-07-16T01:38:22;99955.59;;;15.65;79.20
69247;BME280;56358;56.328;43.992;2023-07-16T01:40:23;99989.22;;;15.79;79.10
69247;BME280;56358;56.328;43.992;2023-07-16T01:42:24;99978.97;;;15.83;79.17
69247;BME280;56358;56.328;43.992;2023-07-16T01:44:25;99976.09;;;15.84;78.82
69247;BME280;56358;56.328;43.992;2023-07-16T01:46:26;99968.50;;;15.88;78.68
69247;BME280;56358;56.328;43.992;2023-07-16T01:48:37;99915.22;;;15.55;78.36
69247;BME280;56358;56.328;43.992;2023-07-16T01:50:38;99958.69;;;15.87;78.47
69247;BME280;56358;56.328;43.992;2023-07-16T01:52:38;99977.63;;;15.95;78.98
69247;BME280;56358;56.328;43.992;2023-07-16T01:54:39;99973.91;;;15.96;78.49
69247;BME280;56358;56.328;43.992;2023-07-16T01:56:40;99918.59;;;15.57;78.51
69247;BME280;56358;56.328;43.992;2023-07-16T01:58:40;99983.22;;;16.02;78.73
69247;BME280;56358;56.328;43.992;2023-07-16T02:00:42;99981.03;;;16.05;78.45
69247;BME280;56358;56.328;43.992;2023-07-16T02:02:43;99968.50;;;15.96;78.59
69247;BME280;56358;56.328;43.992;2023-07-16T02:04:43;99965.47;;;15.99;78.47
69247;BME280;56358;56.328;43.992;2023-07-16T02:06:44;99992.00;;;16.12;78.82
69247;BME280;56358;56.328;43.992;2023-07-16T02:08:45;99976.63;;;16.13;78.32
69247;BME280;56358;56.328;43.992;2023-07-16T02:10:48;99986.78;;;16.19;78.33
69247;BME280;56358;56.328;43.992;2023-07-16T02:12:49;99958.88;;;16.02;78.80
69247;BME280;56358;56.328;43.992;2023-07-16T02:14:50;99977.84;;;16.18;78.50
69247;BME280;56358;56.328;43.992;2023-07-16T02:16:51;99980.38;;;16.20;78.63
69247;BME280;56358;56.328;43.992;2023-07-16T02:18:52;99984.06;;;16.27;78.62
69247;BME280;56358;56.328;43.992;2023-07-16T02:20:52;99938.44;;;15.99;78.32
69247;BME280;56358;56.328;43.992;2023-07-16T02:22:53;99990.84;;;16.31;78.12
69247;BME280;56358;56.328;43.992;2023-07-16T02:24:54;99995.25;;;16.32;78.54
69247;BME280;56358;56.328;43.992;2023-07-16T02:26:54;99925.59;;;15.93;77.92
69247;BME280;56358;56.328;43.992;2023-07-16T02:28:55;99993.72;;;16.21;78.54
69247;BME280;56358;56.328;43.992;2023-07-16T02:30:56;99992.19;;;16.27;78.51
69247;BME280;56358;56.328;43.992;2023-07-16T02:32:56;100002.00;;;16.36;78.25
69247;BME280;56358;56.328;43.992;2023-07-16T02:34:57;100001.50;;;16.41;78.40
69247;BME280;56358;56.328;43.992;2023-07-16T02:36:58;99996.94;;;16.41;78.03
69247;BME280;56358;56.328;43.992;2023-07-16T02:38:58;100000.31;;;16.44;77.98
69247;BME280;56358;56.328;43.992;2023-07-16T02:40:59;100001.50;;;16.49;77.88
69247;BME280;56358;56.328;43.992;2023-07-16T02:43:00;99994.56;;;16.55;77.66
69247;BME280;56358;56.328;43.992;2023-07-16T02:45:01;100002.16;;;16.59;77.48
69247;BME280;56358;56.328;43.992;2023-07-16T02:47:02;100003.00;;;16.60;77.74
69247;BME280;56358;56.328;43.992;2023-07-16T02:49:03;99978.50;;;16.53;77.26
69247;BME280;56358;56.328;43.992;2023-07-16T02:51:04;100002.16;;;16.68;76.88
69247;BME280;56358;56.328;43.992;2023-07-16T02:53:06;100000.81;;;16.72;77.35
69247;BME280;56358;56.328;43.992;2023-07-16T02:55:07;100009.75;;;16.72;77.04
69247;BME280;56358;56.328;43.992;2023-07-16T02:57:08;100008.91;;;16.72;77.26
69247;BME280;56358;56.328;43.992;2023-07-16T02:59:08;100021.56;;;16.80;76.92
69247;BME280;56358;56.328;43.992;2023-07-16T03:01:09;100011.94;;;16.85;76.88
69247;BME280;56358;56.328;43.992;2023-07-16T03:03:10;100001.63;;;16.81;76.74
69247;BME280;56358;56.328;43.992;2023-07-16T03:05:10;100017.38;;;16.94;76.81
69247;BME280;56358;56.328;43.992;2023-07-16T03:07:11;100017.00;;;16.97;76.50
69247;BME280;56358;56.328;43.992;2023-07-16T03:09:12;100001.78;;;16.96;76.38
69247;BME280;56358;56.328;43.992;2023-07-16T03:11:12;100014.81;;;17.00;76.12
69247;BME280;56358;56.328;43.992;2023-07-16T03:13:13;100015.81;;;17.07;76.36
69247;BME280;56358;56.328;43.992;2023-07-16T03:15:14;100017.81;;;17.14;76.22
69247;BME280;56358;56.328;43.992;2023-07-16T03:17:15;100015.63;;;17.17;76.36
69247;BME280;56358;56.328;43.992;2023-07-16T03:19:15;100017.66;;;17.15;76.24
69247;BME280;56358;56.328;43.992;2023-07-16T03:21:16;100016.97;;;17.13;76.29
69247;BME280;56358;56.328;43.992;2023-07-16T03:23:17;100012.59;;;17.12;76.16
69247;BME280;56358;56.328;43.992;2023-07-16T03:25:17;100018.00;;;17.12;76.96
69247;BME280;56358;56.328;43.992;2023-07-16T03:27:18;99993.16;;;17.00;76.65
69247;BME280;56358;56.328;43.992;2023-07-16T03:29:19;100023.41;;;17.20;76.68
69247;BME280;56358;56.328;43.992;2023-07-16T03:31:19;100006.63;;;17.17;76.67
69247;BME280;56358;56.328;43.992;2023-07-16T03:33:20;100023.53;;;17.27;76.12
69247;BME280;56358;56.328;43.992;2023-07-16T03:35:21;100018.25;;;17.34;76.61
69247;BME280;56358;56.328;43.992;2023-07-16T03:37:21;100006.28;;;17.28;76.49
69247;BME280;56358;56.328;43.992;2023-07-16T03:39:22;100017.06;;;17.36;76.84
69247;BME280;56358;56.328;43.992;2023-07-16T03:41:23;100008.09;;;17.36;76.51
69247;BME280;56358;56.328;43.992;2023-07-16T03:43:23;100020.41;;;17.47;76.61
69247;BME280;56358;56.328;43.992;2023-07-16T03:45:24;100016.34;;;17.51;76.54
69247;BME280;56358;56.328;43.992;2023-07-16T03:47:25;100017.31;;;17.58;76.03
69247;BME280;56358;56.328;43.992;2023-07-16T03:49:26;100008.81;;;17.61;76.13
69247;BME280;56358;56.328;43.992;2023-07-16T03:51:27;100010.28;;;17.72;75.48
69247;BME280;56358;56.328;43.992;2023-07-16T03:53:27;100001.84;;;17.67;75.11
69247;BME280;56358;56.328;43.992;2023-07-16T03:55:29;100007.13;;;17.91;74.93
69247;BME280;56358;56.328;43.992;2023-07-16T03:57:30;100010.50;;;18.02;74.58
69247;BME280;56358;56.328;43.992;2023-07-16T03:59:30;99944.56;;;17.70;74.26
69247;BME280;56358;56.328;43.992;2023-07-16T04:01:31;99995.47;;;18.14;73.99
69247;BME280;56358;56.328;43.992;2023-07-16T04:03:32;100014.34;;;18.31;73.14
69247;BME280;56358;56.328;43.992;2023-07-16T04:05:32;100014.66;;;18.36;73.29
69247;BME280;56358;56.328;43.992;2023-07-16T04:07:33;100021.59;;;18.38;73.08
69247;BME280;56358;56.328;43.992;2023-07-16T04:09:37;100012.88;;;18.43;73.07
69247;BME280;56358;56.328;43.992;2023-07-16T04:11:38;99956.50;;;18.15;73.22
69247;BME280;56358;56.328;43.992;2023-07-16T04:13:39;100007.66;;;18.56;72.95
69247;BME280;56358;56.328;43.992;2023-07-16T04:15:40;99931.63;;;18.26;72.21
69247;BME280;56358;56.328;43.992;2023-07-16T04:17:40;99999.75;;;18.70;71.92
69247;BME280;56358;56.328;43.992;2023-07-16T04:19:41;99994.69;;;18.67;72.16
69247;BME280;56358;56.328;43.992;2023-07-16T04:21:42;100006.53;;;18.74;72.12
69247;BME280;56358;56.328;43.992;2023-07-16T04:23:42;99994.25;;;18.78;71.90
69247;BME280;56358;56.328;43.992;2023-07-16T04:25:43;99997.44;;;18.82;71.89
69247;BME280;56358;56.328;43.992;2023-07-16T04:27:44;99989.47;;;18.80;71.69
69247;BME280;56358;56.328;43.992;2023-07-16T04:29:45;100004.50;;;18.91;71.42
69247;BME280;56358;56.328;43.992;2023-07-16T04:31:45;100013.59;;;18.98;71.22
69247;BME280;56358;56.328;43.992;2023-07-16T04:33:46;100007.31;;;19.13;71.20
69247;BME280;56358;56.328;43.992;2023-07-16T04:35:47;100004.97;;;19.24;70.46
69247;BME280;56358;56.328;43.992;2023-07-16T04:37:47;99938.00;;;19.02;69.91
69247;BME280;56358;56.328;43.992;2023-07-16T04:39:48;99915.44;;;19.01;69.00
69247;BME280;56358;56.328;43.992;2023-07-16T04:41:49;99972.06;;;19.49;68.68
69247;BME280;56358;56.328;43.992;2023-07-16T04:43:49;100003.03;;;19.70;68.19
69247;BME280;56358;56.328;43.992;2023-07-16T04:45:50;100011.84;;;19.87;68.38
69247;BME280;56358;56.328;43.992;2023-07-16T04:47:51;99978.00;;;19.74;68.16
69247;BME280;56358;56.328;43.992;2023-07-16T04:49:51;99998.81;;;19.82;67.78
69247;BME280;56358;56.328;43.992;2023-07-16T04:51:52;99989.56;;;19.62;68.15
69247;BME280;56358;56.328;43.992;2023-07-16T04:53:53;100010.16;;;19.71;68.20
69247;BME280;56358;56.328;43.992;2023-07-16T04:55:53;100007.69;;;19.54;69.04
69247;BME280;56358;56.328;43.992;2023-07-16T04:57:54;99994.28;;;19.38;69.04
69247;BME280;56358;56.328;43.992;2023-07-16T04:59:57;100007.13;;;19.44;69.20
69247;BME280;56358;56.328;43.992;2023-07-16T05:01:57;100001.13;;;19.34;69.33
69247;BME280;56358;56.328;43.992;2023-07-16T05:03:58;99993.75;;;19.28;69.77
69247;BME280;56358;56.328;43.992;2023-07-16T05:05:59;100011.44;;;19.23;69.46
69247;BME280;56358;56.328;43.992;2023-07-16T05:08:00;100001.22;;;19.25;69.16
69247;BME280;56358;56.328;43.992;2023-07-16T05:10:00;100014.72;;;19.19;69.27
69247;BME280;56358;56.328;43.992;2023-07-16T05:12:03;100005.25;;;19.15;69.73
69247;BME280;56358;56.328;43.992;2023-07-16T05:14:04;99944.31;;;18.79;69.58
69247;BME280;56358;56.328;43.992;2023-07-16T05:16:04;99942.00;;;18.76;69.48
69247;BME280;56358;56.328;43.992;2023-07-16T05:18:05;100012.75;;;19.13;69.16
69247;BME280;56358;56.328;43.992;2023-07-16T05:20:07;100003.75;;;19.12;69.00
69247;BME280;56358;56.328;43.992;2023-07-16T05:22:07;99960.47;;;18.81;68.70
69247;BME280;56358;56.328;43.992;2023-07-16T05:24:08;100009.19;;;19.12;69.01
69247;BME280;56358;56.328;43.992;2023-07-16T05:26:09;100006.28;;;19.14;68.45
69247;BME280;56358;56.328;43.992;2023-07-16T05:28:09;100007.59;;;19.18;68.21
69247;BME280;56358;56.328;43.992;2023-07-16T05:30:10;100005.84;;;19.25;68.25
69247;BME280;56358;56.328;43.992;2023-07-16T05:32:11;99994.38;;;19.30;67.97
69247;BME280;56358;56.328;43.992;2023-07-16T05:34:12;100010.47;;;19.46;67.54
69247;BME280;56358;56.328;43.992;2023-07-16T05:36:13;100010.56;;;19.53;67.27
69247;BME280;56358;56.328;43.992;2023-07-16T05:38:14;99982.28;;;19.47;66.88
69247;BME280;56358;56.328;43.992;2023-07-16T05:40:14;100004.38;;;19.59;66.53
69247;BME280;56358;56.328;43.992;2023-07-16T05:42:15;99997.25;;;19.58;66.44
69247;BME280;56358;56.328;43.992;2023-07-16T05:44:16;100001.75;;;19.66;66.48
69247;BME280;56358;56.328;43.992;2023-07-16T05:46:17;100009.78;;;19.74;66.07
69247;BME280;56358;56.328;43.992;2023-07-16T05:48:17;99955.09;;;19.47;65.02
69247;BME280;56358;56.328;43.992;2023-07-16T05:50:18;100008.16;;;19.80;65.18
69247;BME280;56358;56.328;43.992;2023-07-16T05:52:18;99994.09;;;19.91;65.21
69247;BME280;56358;56.328;43.992;2023-07-16T05:54:19;99972.75;;;19.88;64.78
69247;BME280;56358;56.328;43.992;2023-07-16T05:56:20;99970.47;;;19.91;65.00
69247;BME280;56358;56.328;43.992;2023-07-16T05:58:21;99932.59;;;19.75;63.61
69247;BME280;56358;56.328;43.992;2023-07-16T06:00:21;99926.78;;;19.78;63.65
69247;BME280;56358;56.328;43.992;2023-07-16T06:02:22;100004.31;;;20.25;64.16
69247;BME280;56358;56.328;43.992;2023-07-16T06:04:23;99991.31;;;20.27;63.69
69247;BME280;56358;56.328;43.992;2023-07-16T06:06:24;100006.88;;;20.34;63.85
69247;BME280;56358;56.328;43.992;2023-07-16T06:08:25;100004.03;;;20.42;63.94
69247;BME280;56358;56.328;43.992;2023-07-16T06:10:25;99963.97;;;20.14;62.27
69247;BME280;56358;56.328;43.992;2023-07-16T06:12:26;99995.53;;;20.30;59.34
69247;BME280;56358;56.328;43.992;2023-07-16T06:14:26;100008.28;;;20.51;57.56
69247;BME280;56358;56.328;43.992;2023-07-16T06:16:27;100015.47;;;20.59;57.47
69247;BME280;56358;56.328;43.992;2023-07-16T06:18:28;100018.34;;;20.72;56.77
69247;BME280;56358;56.328;43.992;2023-07-16T06:20:28;100016.31;;;20.81;55.76
69247;BME280;56358;56.328;43.992;2023-07-16T06:22:29;100015.38;;;20.96;56.37
69247;BME280;56358;56.328;43.992;2023-07-16T06:24:30;100034.53;;;21.09;56.09
69247;BME280;56358;56.328;43.992;2023-07-16T06:26:31;99968.31;;;20.80;56.53
69247;BME280;56358;56.328;43.992;2023-07-16T06:28:32;100010.00;;;21.09;56.93
69247;BME280;56358;56.328;43.992;2023-07-16T06:30:33;100019.66;;;21.12;55.71
69247;BME280;56358;56.328;43.992;2023-07-16T06:32:34;100026.56;;;21.07;55.75
69247;BME280;56358;56.328;43.992;2023-07-16T06:34:35;100018.91;;;20.96;56.30
69247;BME280;56358;56.328;43.992;2023-07-16T06:36:37;100029.78;;;20.89;56.77
69247;BME280;56358;56.328;43.992;2023-07-16T06:38:38;100016.50;;;20.80;56.75
69247;BME280;56358;56.328;43.992;2023-07-16T06:40:40;100027.06;;;20.68;57.28
69247;BME280;56358;56.328;43.992;2023-07-16T06:42:41;100014.56;;;20.52;57.63
69247;BME280;56358;56.328;43.992;2023-07-16T06:44:42;100035.19;;;20.39;58.67
69247;BME280;56358;56.328;43.992;2023-07-16T06:46:42;100029.03;;;20.09;61.34
69247;BME280;56358;56.328;43.992;2023-07-16T06:48:43;100044.09;;;19.90;61.32
69247;BME280;56358;56.328;43.992;2023-07-16T06:50:44;100008.47;;;19.70;62.93
69247;BME280;56358;56.328;43.992;2023-07-16T06:52:45;100012.34;;;19.60;64.51
69247;BME280;56358;56.328;43.992;2023-07-16T06:54:46;99947.72;;;19.11;65.78
69247;BME280;56358;56.328;43.992;2023-07-16T06:56:47;100000.75;;;19.37;66.73
69247;BME280;56358;56.328;43.992;2023-07-16T06:58:48;100008.25;;;19.35;67.09
69247;BME280;56358;56.328;43.992;2023-07-16T07:00:49;99996.38;;;19.21;67.42
69247;BME280;56358;56.328;43.992;2023-07-16T07:02:49;100011.59;;;19.37;67.78
69247;BME280;56358;56.328;43.992;2023-07-16T07:04:50;100010.47;;;19.46;68.68
69247;BME280;56358;56.328;43.992;2023-07-16T07:06:51;99899.03;;;18.80;68.48
69247;BME280;56358;56.328;43.992;2023-07-16T07:08:52;100014.34;;;19.52;68.71
69247;BME280;56358;56.328;43.992;2023-07-16T07:10:53;99988.09;;;19.44;69.54
69247;BME280;56358;56.328;43.992;2023-07-16T07:12:53;100021.16;;;19.63;68.83
69247;BME280;56358;56.328;43.992;2023-07-16T07:14:54;100011.31;;;19.62;67.52
69247;BME280;56358;56.328;43.992;2023-07-16T07:16:55;99993.69;;;19.57;67.94
69247;BME280;56358;56.328;43.992;2023-07-16T07:18:57;100010.38;;;19.69;67.61
69247;BME280;56358;56.328;43.992;2023-07-16T07:20:57;100006.69;;;19.62;68.08
69247;BME280;56358;56.328;43.992;2023-07-16T07:22:58;100013.63;;;19.65;67.92
69247;BME280;56358;56.328;43.992;2023-07-16T07:25:02;100012.13;;;19.62;68.53
69247;BME280;56358;56.328;43.992;2023-07-16T07:27:06;100004.38;;;19.59;67.72
69247;BME280;56358;56.328;43.992;2023-07-16T07:29:07;100002.69;;;19.58;67.37
69247;BME280;56358;56.328;43.992;2023-07-16T07:31:08;100015.91;;;19.61;67.40
69247;BME280;56358;56.328;43.992;2023-07-16T07:33:08;100025.75;;;19.62;67.75
69247;BME280;56358;56.328;43.992;2023-07-16T07:35:09;100031.66;;;19.66;67.87
69247;BME280;56358;56.328;43.992;2023-07-16T07:37:10;100023.69;;;19.64;67.70
69247;BME280;56358;56.328;43.992;2023-07-16T07:39:10;100012.25;;;19.54;67.42
69247;BME280;56358;56.328;43.992;2023-07-16T07:41:13;100025.09;;;19.60;68.18
69247;BME280;56358;56.328;43.992;2023-07-16T07:43:14;100030.34;;;19.62;67.59
69247;BME280;56358;56.328;43.992;2023-07-16T07:45:14;100026.13;;;19.59;67.00
69247;BME280;56358;56.328;43.992;2023-07-16T07:47:15;100037.00;;;19.59;67.01
69247;BME280;56358;56.328;43.992;2023-07-16T07:49:16;100021.00;;;19.49;67.34
69247;BME280;56358;56.328;43.992;2023-07-16T07:51:17;100012.38;;;19.46;67.57
69247;BME280;56358;56.328;43.992;2023-07-16T07:53:17;100024.94;;;19.47;67.25
69247;BME280;56358;56.328;43.992;2023-07-16T07:55:19;100027.94;;;19.52;67.29
69247;BME280;56358;56.328;43.992;2023-07-16T07:57:20;100033.91;;;19.47;67.20
69247;BME280;56358;56.328;43.992;2023-07-16T07:59:20;100021.66;;;19.36;66.94
69247;BME280;56358;56.328;43.992;2023-07-16T08:01:21;99995.59;;;19.27;67.48
69247;BME280;56358;56.328;43.992;2023-07-16T08:03:22;99976.78;;;19.25;67.44
69247;BME280;56358;56.328;43.992;2023-07-16T08:05:22;100029.22;;;19.56;67.87
69247;BME280;56358;56.328;43.992;2023-07-16T08:07:23;99913.75;;;19.00;66.77
69247;BME280;56358;56.328;43.992;2023-07-16T08:09:26;100014.50;;;19.65;66.83
69247;BME280;56358;56.328;43.992;2023-07-16T08:11:27;100026.38;;;19.79;65.84
69247;BME280;56358;56.328;43.992;2023-07-16T08:13:27;100027.13;;;19.73;65.77
69247;BME280;56358;56.328;43.992;2023-07-16T08:15:28;100030.50;;;19.75;65.78
69247;BME280;56358;56.328;43.992;2023-07-16T08:17:29;100036.97;;;19.74;66.08
69247;BME280;56358;56.328;43.992;2023-07-16T08:19:30;100005.47;;;19.65;66.82
69247;BME280;56358;56.328;43.992;2023-07-16T08:21:32;100026.00;;;19.82;66.97
69247;BME280;56358;56.328;43.992;2023-07-16T08:23:33;100032.75;;;19.86;66.86
69247;BME280;56358;56.328;43.992;2023-07-16T08:25:33;100030.69;;;19.88;66.72
69247;BME280;56358;56.328;43.992;2023-07-16T08:27:34;100018.59;;;19.76;66.22
69247;BME280;56358;56.328;43.992;2023-07-16T08:29:36;100031.25;;;19.84;65.14
69247;BME280;56358;56.328;43.992;2023-07-16T08:31:37;100032.50;;;19.81;64.81
69247;BME280;56358;56.328;43.992;2023-07-16T08:33:37;100009.31;;;19.70;64.19
69247;BME280;56358;56.328;43.992;2023-07-16T08:35:39;100033.50;;;19.80;64.14
69247;BME280;56358;56.328;43.992;2023-07-16T08:37:39;100042.13;;;19.84;62.70
69247;BME280;56358;56.328;43.992;2023-07-16T08:39:40;100041.78;;;19.72;62.80
69247;BME280;56358;56.328;43.992;2023-07-16T08:41:42;100041.31;;;19.68;62.00
69247;BME280;56358;56.328;43.992;2023-07-16T08:43:45;100029.69;;;19.45;62.15
69247;BME280;56358;56.328;43.992;2023-07-16T08:45:46;100041.97;;;19.55;63.19
69247;BME280;56358;56.328;43.992;2023-07-16T08:47:47;99968.72;;;19.17;61.95
69247;BME280;56358;56.328;43.992;2023-07-16T08:49:55;100034.09;;;19.60;60.83
69247;BME280;56358;56.328;43.992;2023-07-16T08:51:59;100033.91;;;19.62;60.29
69247;BME280;56358;56.328;43.992;2023-07-16T08:54:01;100022.28;;;19.53;60.34
69247;BME280;56358;56.328;43.992;2023-07-16T08:56:02;100054.50;;;19.71;59.80
69247;BME280;56358;56.328;43.992;2023-07-16T08:58:06;100048.81;;;19.81;59.25
69247;BME280;56358;56.328;43.992;2023-07-16T09:00:07;100046.63;;;19.91;58.78
69247;BME280;56358;56.328;43.992;2023-07-16T09:02:09;100056.56;;;19.99;58.45
69247;BME280;56358;56.328;43.992;2023-07-16T09:04:10;100004.81;;;19.77;58.47
69247;BME280;56358;56.328;43.992;2023-07-16T09:06:11;100040.63;;;19.96;58.10
69247;BME280;56358;56.328;43.992;2023-07-16T09:08:12;100052.22;;;20.05;58.33
69247;BME280;56358;56.328;43.992;2023-07-16T09:10:13;100045.09;;;20.04;58.67
69247;BME280;56358;56.328;43.992;2023-07-16T09:12:14;100051.47;;;20.11;58.99
69247;BME280;56358;56.328;43.992;2023-07-16T09:14:19;99980.25;;;19.71;58.21
69247;BME280;56358;56.328;43.992;2023-07-16T09:16:20;100044.94;;;20.27;58.51
69247;BME280;56358;56.328;43.992;2023-07-16T09:18:26;100045.25;;;20.39;57.86
69247;BME280;56358;56.328;43.992;2023-07-16T09:20:27;99983.44;;;20.11;57.75
69247;BME280;56358;56.328;43.992;2023-07-16T09:22:29;100049.53;;;20.48;57.92
69247;BME280;56358;56.328;43.992;2023-07-16T09:24:30;100056.84;;;20.48;57.86
69247;BME280;56358;56.328;43.992;2023-07-16T09:26:30;100041.75;;;20.45;58.12
69247;BME280;56358;56.328;43.992;2023-07-16T09:28:32;100059.03;;;20.37;60.07
69247;BME280;56358;56.328;43.992;2023-07-16T09:30:33;100059.38;;;20.27;60.65
69247;BME280;56358;56.328;43.992;2023-07-16T09:32:35;100090.94;;;20.22;60.38
69247;BME280;56358;56.328;43.992;2023-07-16T09:34:36;100071.53;;;20.10;61.35
69247;BME280;56358;56.328;43.992;2023-07-16T09:36:36;100068.53;;;20.05;62.15
69247;BME280;56358;56.328;43.992;2023-07-16T09:38:37;100051.63;;;19.88;62.27
69247;BME280;56358;56.328;43.992;2023-07-16T09:40:39;100077.09;;;20.02;62.30
69247;BME280;56358;56.328;43.992;2023-07-16T09:42:43;100077.72;;;20.04;61.76
69247;BME280;56358;56.328;43.992;2023-07-16T09:44:44;100081.13;;;20.06;61.20
69247;BME280;56358;56.328;43.992;2023-07-16T09:46:46;100080.38;;;20.12;60.58
69247;BME280;56358;56.328;43.992;2023-07-16T09:48:47;100076.84;;;20.18;60.46
69247;BME280;56358;56.328;43.992;2023-07-16T09:50:52;100064.75;;;20.21;59.55
69247;BME280;56358;56.328;43.992;2023-07-16T09:52:53;100071.81;;;20.37;59.33
69247;BME280;56358;56.328;43.992;2023-07-16T09:54:56;100078.16;;;20.44;59.40
69247;BME280;56358;56.328;43.992;2023-07-16T09:56:58;100071.94;;;20.50;59.49
69247;BME280;56358;56.328;43.992;2023-07-16T09:59:01;100013.03;;;20.21;59.42
69247;BME280;56358;56.328;43.992;2023-07-16T10:01:04;100079.97;;;20.58;58.92
69247;BME280;56358;56.328;43.992;2023-07-16T10:03:09;100004.41;;;20.17;58.66
69247;BME280;56358;56.328;43.992;2023-07-16T10:05:17;100081.00;;;20.72;59.26
69247;BME280;56358;56.328;43.992;2023-07-16T10:07:23;100067.22;;;20.59;58.16
69247;BME280;56358;56.328;43.992;2023-07-16T10:09:40;100082.34;;;20.62;57.53
69247;BME280;56358;56.328;43.992;2023-07-16T10:11:41;100073.25;;;20.54;58.14
69247;BME280;56358;56.328;43.992;2023-07-16T10:13:43;100072.72;;;20.66;57.91
69247;BME280;56358;56.328;43.992;2023-07-16T10:17:56;100075.72;;;20.71;58.02
69247;BME280;56358;56.328;43.992;2023-07-16T10:20:02;100073.97;;;20.63;57.90
69247;BME280;56358;56.328;43.992;2023-07-16T10:22:11;100066.56;;;20.57;58.30
69247;BME280;56358;56.328;43.992;2023-07-16T10:24:17;100061.75;;;20.37;58.47
69247;BME280;56358;56.328;43.992;2023-07-16T10:26:19;100081.09;;;20.42;59.28
69247;BME280;56358;56.328;43.992;2023-07-16T10:28:19;100075.31;;;20.31;60.00
69247;BME280;56358;56.328;43.992;2023-07-16T10:30:20;100054.75;;;20.06;60.05
69247;BME280;56358;56.328;43.992;2023-07-16T10:32:21;100083.22;;;20.25;60.00
69247;BME280;56358;56.328;43.992;2023-07-16T10:34:24;100090.47;;;20.18;60.10